Time;durP1;ratioP1;P1;durP2;ratioP2;P2;SDS_P1;SDS_P2;PMS_P1;PMS_P2;Temp;Humidity;BMP_temperature;BMP_pressure;BME280_temperature;BME280_humidity;BME280_pressure;Samples;Min_cycle;Max_cycle;Signal;HPM_P1;HPM_P2
2023/10/18 00:02:00;;;;;;;10.07;5.82;;;;;;;;;;5050641;28;20112;-71
2023/10/18 00:04:28;;;;;;;8.27;5.53;;;;;;;;;;5046889;28;20082;-71
2023/10/18 00:06:54;;;;;;;11.20;5.40;;;;;;;;;;5041037;28;20037;-72
2023/10/18 00:12:26;;;;;;;10.98;5.63;;;;;;;;;;4983144;28;20034;-71
2023/10/18 00:14:52;;;;;;;9.50;5.32;;;;;;;;;;4989166;28;20046;-72
2023/10/18 00:17:19;;;;;;;16.80;6.35;;;;;;;;;;5018028;28;20545;-72
2023/10/18 00:19:45;;;;;;;12.20;6.30;;;;;;;;;;5046011;28;20028;-72
2023/10/18 00:22:12;;;;;;;9.00;5.30;;;;;;;;;;5037651;28;20040;-72
2023/10/18 00:24:39;;;;;;;9.63;5.90;;;;;;;;;;5046086;28;20116;-71
2023/10/18 00:27:05;;;;;;;10.15;6.45;;;;;;;;;;5047755;28;20037;-72
2023/10/18 00:29:34;;;;;;;11.07;6.25;;;;;;;;;;5050377;28;20077;-72
2023/10/18 00:32:00;;;;;;;12.18;6.38;;;;;;;;;;5044179;28;20083;-72
2023/10/18 00:34:28;;;;;;;10.50;6.32;;;;;;;;;;5041517;28;20136;-72
2023/10/18 00:36:55;;;;;;;11.85;7.47;;;;;;;;;;5039745;28;20109;-72
2023/10/18 00:39:26;;;;;;;19.50;6.93;;;;;;;;;;5039411;28;20063;-72
2023/10/18 00:41:53;;;;;;;14.75;7.30;;;;;;;;;;5041754;28;20031;-73
2023/10/18 00:44:21;;;;;;;12.40;6.88;;;;;;;;;;5050489;28;20497;-72
2023/10/18 00:46:47;;;;;;;13.90;6.95;;;;;;;;;;5038789;28;20115;-73
2023/10/18 00:49:14;;;;;;;11.27;7.18;;;;;;;;;;5050815;28;20029;-73
2023/10/18 00:51:43;;;;;;;13.00;6.97;;;;;;;;;;5023584;28;20604;-73
2023/10/18 00:54:11;;;;;;;13.73;8.02;;;;;;;;;;5039493;28;20033;-73
2023/10/18 00:56:39;;;;;;;13.02;7.30;;;;;;;;;;5031512;28;20053;-73
2023/10/18 00:59:14;;;;;;;13.35;8.15;;;;;;;;;;5034126;28;20079;-73
2023/10/18 01:01:43;;;;;;;14.93;8.38;;;;;;;;;;5041934;28;20036;-73
2023/10/18 01:04:12;;;;;;;10.88;7.88;;;;;;;;;;5034996;28;20087;-72
2023/10/18 01:06:42;;;;;;;13.32;9.38;;;;;;;;;;5047616;28;20044;-73
2023/10/18 01:09:15;;;;;;;15.45;8.77;;;;;;;;;;5041297;28;20033;-73
2023/10/18 01:11:41;;;;;;;16.45;8.82;;;;;;;;;;5034767;28;20052;-73
2023/10/18 01:14:07;;;;;;;13.88;8.45;;;;;;;;;;5034940;28;20095;-73
2023/10/18 01:16:37;;;;;;;15.57;8.77;;;;;;;;;;5046003;28;20096;-73
2023/10/18 01:19:08;;;;;;;17.38;9.40;;;;;;;;;;5050652;28;20080;-73
2023/10/18 01:21:34;;;;;;;16.30;9.57;;;;;;;;;;5049847;28;20116;-73
2023/10/18 01:24:00;;;;;;;13.10;9.60;;;;;;;;;;5040652;28;20040;-73
2023/10/18 01:26:28;;;;;;;17.48;9.77;;;;;;;;;;5048763;28;20037;-73
2023/10/18 01:28:55;;;;;;;18.48;9.77;;;;;;;;;;5051340;28;20044;-73
2023/10/18 01:31:21;;;;;;;19.83;10.98;;;;;;;;;;5044396;28;20029;-73
2023/10/18 01:33:47;;;;;;;18.65;11.13;;;;;;;;;;5037914;28;20037;-73
2023/10/18 01:36:17;;;;;;;18.88;11.43;;;;;;;;;;5026809;28;20076;-73
2023/10/18 01:38:44;;;;;;;20.90;10.30;;;;;;;;;;5034414;28;20482;-73
2023/10/18 01:41:25;;;;;;;19.20;11.48;;;;;;;;;;5035575;28;20840;-73
2023/10/18 01:43:51;;;;;;;16.85;10.82;;;;;;;;;;5042227;28;20068;-73
2023/10/18 01:46:17;;;;;;;22.40;12.02;;;;;;;;;;5047708;28;20040;-73
2023/10/18 01:48:50;;;;;;;20.77;11.38;;;;;;;;;;5041453;28;20040;-72
2023/10/18 01:51:16;;;;;;;22.48;11.70;;;;;;;;;;5040280;28;20034;-72
2023/10/18 01:53:43;;;;;;;19.63;11.50;;;;;;;;;;5041481;28;20036;-72
2023/10/18 01:56:11;;;;;;;19.70;12.23;;;;;;;;;;5036650;28;20440;-72
2023/10/18 01:58:38;;;;;;;22.25;13.45;;;;;;;;;;5041339;28;20471;-73
2023/10/18 02:01:10;;;;;;;25.17;12.85;;;;;;;;;;5034759;28;20049;-73
2023/10/18 02:03:39;;;;;;;28.33;14.43;;;;;;;;;;5039862;28;20044;-72
2023/10/18 02:06:09;;;;;;;23.27;13.52;;;;;;;;;;5052368;28;20021;-72
2023/10/18 02:08:35;;;;;;;22.85;12.35;;;;;;;;;;5038557;28;20158;-73
2023/10/18 02:11:05;;;;;;;21.33;13.15;;;;;;;;;;5052554;28;20028;-72
2023/10/18 02:13:31;;;;;;;24.00;13.88;;;;;;;;;;5044044;28;20022;-72
2023/10/18 02:15:57;;;;;;;25.17;14.45;;;;;;;;;;5020138;28;20099;-73
2023/10/18 02:18:24;;;;;;;26.13;14.77;;;;;;;;;;5037144;28;20122;-73
2023/10/18 02:20:53;;;;;;;25.48;14.32;;;;;;;;;;5037608;28;20518;-72
2023/10/18 02:23:22;;;;;;;25.35;14.15;;;;;;;;;;5013296;28;20139;-73
2023/10/18 02:25:49;;;;;;;26.75;15.57;;;;;;;;;;5042028;28;20605;-73
2023/10/18 02:28:22;;;;;;;28.98;15.48;;;;;;;;;;5044236;28;20043;-72
2023/10/18 02:30:55;;;;;;;27.30;15.82;;;;;;;;;;5052940;28;20047;-73
2023/10/18 02:33:26;;;;;;;28.08;16.20;;;;;;;;;;5044456;28;20533;-73
2023/10/18 02:35:52;;;;;;;28.20;15.63;;;;;;;;;;5046059;28;20029;-73
2023/10/18 02:38:20;;;;;;;23.98;15.20;;;;;;;;;;5034964;28;20037;-73
2023/10/18 02:40:49;;;;;;;29.77;16.00;;;;;;;;;;5043681;28;20045;-72
2023/10/18 02:43:15;;;;;;;28.83;15.88;;;;;;;;;;5048720;28;20043;-72
2023/10/18 02:45:47;;;;;;;27.15;15.82;;;;;;;;;;5045889;28;20083;-72
2023/10/18 02:48:14;;;;;;;25.25;15.27;;;;;;;;;;5030222;28;20487;-73
2023/10/18 02:50:40;;;;;;;23.23;15.80;;;;;;;;;;5024292;28;20048;-73
2023/10/18 02:53:06;;;;;;;43.88;26.27;;;;;;;;;;5027539;28;20069;-72
2023/10/18 02:55:34;;;;;;;39.00;22.05;;;;;;;;;;5031631;28;20088;-72
2023/10/18 02:58:00;;;;;;;26.83;17.05;;;;;;;;;;5026127;28;20953;-73
2023/10/18 03:00:27;;;;;;;27.75;16.60;;;;;;;;;;5022571;28;20810;-74
2023/10/18 03:02:54;;;;;;;25.80;15.35;;;;;;;;;;5042452;28;20049;-73
2023/10/18 03:05:21;;;;;;;26.23;15.43;;;;;;;;;;5025715;28;20045;-74
2023/10/18 03:07:47;;;;;;;26.15;15.30;;;;;;;;;;5022960;28;20075;-73
2023/10/18 03:10:26;;;;;;;26.48;15.38;;;;;;;;;;5025973;28;20064;-76
2023/10/18 03:12:53;;;;;;;23.27;15.27;;;;;;;;;;5029740;28;20033;-71
2023/10/18 03:15:21;;;;;;;29.63;16.83;;;;;;;;;;5025231;28;20542;-75
2023/10/18 03:17:49;;;;;;;29.80;18.50;;;;;;;;;;5023025;28;20563;-76
2023/10/18 03:20:23;;;;;;;42.75;25.20;;;;;;;;;;5019737;28;20033;-75
2023/10/18 03:22:49;;;;;;;25.48;15.82;;;;;;;;;;5022646;28;20455;-73
2023/10/18 03:25:30;;;;;;;27.75;15.73;;;;;;;;;;5021473;28;20403;-73
2023/10/18 03:28:04;;;;;;;25.13;16.55;;;;;;;;;;5030155;28;20029;-74
2023/10/18 03:30:45;;;;;;;24.30;15.65;;;;;;;;;;5027594;28;20021;-74
2023/10/18 03:33:14;;;;;;;28.42;15.45;;;;;;;;;;5022914;28;20363;-73
2023/10/18 03:35:43;;;;;;;24.65;16.35;;;;;;;;;;5019708;28;20355;-74
2023/10/18 03:38:17;;;;;;;25.85;16.30;;;;;;;;;;5028980;28;20025;-73
2023/10/18 03:40:49;;;;;;;27.42;15.82;;;;;;;;;;5025983;28;20037;-74
2023/10/18 03:43:16;;;;;;;32.23;20.50;;;;;;;;;;5029269;28;20410;-76
2023/10/18 03:48:29;;;;;;;28.02;16.58;;;;;;;;;;5028741;28;20057;-73
2023/10/18 03:51:00;;;;;;;30.77;17.73;;;;;;;;;;5024338;28;20479;-72
2023/10/18 03:53:27;;;;;;;27.48;16.88;;;;;;;;;;5039930;28;20045;-73
2023/10/18 03:55:55;;;;;;;28.83;17.20;;;;;;;;;;5029999;28;20048;-73
2023/10/18 03:58:26;;;;;;;33.25;17.92;;;;;;;;;;5050508;28;20021;-73
2023/10/18 04:00:56;;;;;;;26.70;16.83;;;;;;;;;;5037703;28;20048;-73
2023/10/18 04:03:27;;;;;;;28.15;17.17;;;;;;;;;;5022992;28;20040;-73
2023/10/18 04:05:54;;;;;;;25.25;16.58;;;;;;;;;;5041499;28;20029;-73
2023/10/18 04:08:22;;;;;;;27.13;16.23;;;;;;;;;;5048603;28;20033;-73
2023/10/18 04:10:58;;;;;;;26.65;15.57;;;;;;;;;;5038022;28;20466;-73
2023/10/18 04:13:25;;;;;;;33.65;15.73;;;;;;;;;;5030833;28;20045;-73
2023/10/18 04:15:59;;;;;;;25.52;15.70;;;;;;;;;;5038820;28;20402;-73
2023/10/18 04:18:34;;;;;;;25.33;16.10;;;;;;;;;;5042614;28;20049;-73
2023/10/18 04:21:05;;;;;;;27.08;16.50;;;;;;;;;;5032769;28;20092;-73
2023/10/18 04:23:31;;;;;;;28.25;17.00;;;;;;;;;;5045390;28;20051;-72
2023/10/18 04:25:58;;;;;;;24.25;16.33;;;;;;;;;;5037293;28;20122;-73
2023/10/18 04:28:25;;;;;;;27.17;16.67;;;;;;;;;;5051151;28;20064;-73
2023/10/18 04:30:53;;;;;;;26.17;17.67;;;;;;;;;;5043555;28;20079;-73
2023/10/18 04:33:25;;;;;;;23.73;16.17;;;;;;;;;;5036098;28;20046;-73
2023/10/18 04:35:56;;;;;;;26.67;17.15;;;;;;;;;;5031731;28;20041;-73
2023/10/18 04:38:29;;;;;;;27.07;16.53;;;;;;;;;;5049631;28;20104;-73
2023/10/18 04:41:02;;;;;;;26.30;17.25;;;;;;;;;;5042168;28;20676;-73
2023/10/18 04:43:28;;;;;;;23.20;16.33;;;;;;;;;;5038180;28;20037;-72
2023/10/18 04:45:59;;;;;;;26.15;15.80;;;;;;;;;;5040242;28;20041;-73
2023/10/18 04:51:26;;;;;;;24.92;16.95;;;;;;;;;;5036952;28;20552;-73
2023/10/18 04:53:53;;;;;;;25.55;16.77;;;;;;;;;;5043670;28;20080;-73
2023/10/18 04:56:19;;;;;;;23.27;16.73;;;;;;;;;;5038389;28;20091;-73
2023/10/18 04:58:45;;;;;;;26.25;16.65;;;;;;;;;;5042330;28;20732;-73
2023/10/18 05:01:13;;;;;;;27.60;17.17;;;;;;;;;;5044492;28;20042;-73
2023/10/18 05:03:44;;;;;;;26.60;16.75;;;;;;;;;;5043576;28;20029;-73
2023/10/18 05:06:13;;;;;;;26.02;18.00;;;;;;;;;;5038750;28;20507;-73
2023/10/18 05:08:42;;;;;;;26.90;17.33;;;;;;;;;;5044528;28;20037;-74
2023/10/18 05:11:23;;;;;;;24.73;17.58;;;;;;;;;;5046063;28;20039;-73
2023/10/18 05:13:49;;;;;;;28.63;17.75;;;;;;;;;;5026920;28;20065;-73
2023/10/18 05:16:16;;;;;;;27.40;16.65;;;;;;;;;;5031024;28;20040;-73
2023/10/18 05:18:46;;;;;;;33.33;17.40;;;;;;;;;;5047007;28;20095;-73
2023/10/18 05:21:20;;;;;;;24.13;17.55;;;;;;;;;;5030554;28;20171;-73
2023/10/18 05:23:46;;;;;;;28.35;18.35;;;;;;;;;;5027510;28;20044;-73
2023/10/18 05:26:18;;;;;;;28.52;17.83;;;;;;;;;;5048948;28;20079;-73
2023/10/18 05:28:48;;;;;;;24.27;16.63;;;;;;;;;;5040089;28;20067;-73
2023/10/18 05:34:18;;;;;;;24.15;17.55;;;;;;;;;;5030230;28;20822;-73
2023/10/18 05:42:03;;;;;;;29.92;18.75;;;;;;;;;;5042195;28;20040;-73
2023/10/18 05:44:38;;;;;;;30.77;17.48;;;;;;;;;;5047031;28;20064;-73
2023/10/18 05:47:06;;;;;;;26.58;17.42;;;;;;;;;;5043911;28;20041;-73
2023/10/18 05:49:40;;;;;;;27.23;17.33;;;;;;;;;;5039065;28;20033;-73
2023/10/18 05:54:35;;;;;;;28.80;16.88;;;;;;;;;;5042352;28;20046;-73
2023/10/18 05:57:02;;;;;;;26.60;18.98;;;;;;;;;;5033307;28;20022;-73
2023/10/18 05:59:28;;;;;;;23.58;16.83;;;;;;;;;;5048866;28;20525;-74
2023/10/18 06:01:58;;;;;;;27.23;17.50;;;;;;;;;;5045199;28;20467;-74
2023/10/18 06:04:24;;;;;;;26.50;17.83;;;;;;;;;;5045020;28;20493;-73
2023/10/18 06:07:29;;;;;;;26.73;17.65;;;;;;;;;;5047746;28;20569;-74
2023/10/18 06:09:47;;;;;;;24.20;17.10;;;;;;;;;;5029123;28;20037;-73
2023/10/18 06:12:14;;;;;;;22.45;16.58;;;;;;;;;;5034368;28;20502;-73
2023/10/18 06:14:41;;;;;;;24.63;16.42;;;;;;;;;;5041755;28;20037;-73
2023/10/18 06:17:14;;;;;;;21.88;15.90;;;;;;;;;;5044392;28;20098;-73
2023/10/18 06:19:45;;;;;;;23.83;16.75;;;;;;;;;;5043703;28;20052;-73
2023/10/18 06:22:39;;;;;;;25.95;16.63;;;;;;;;;;5033773;28;20126;-73
2023/10/18 06:25:06;;;;;;;23.67;16.88;;;;;;;;;;5038378;28;20060;-73
2023/10/18 06:27:41;;;;;;;23.33;17.30;;;;;;;;;;5037606;28;20034;-72
2023/10/18 06:30:17;;;;;;;22.98;16.40;;;;;;;;;;5043758;28;20043;-73
2023/10/18 06:32:44;;;;;;;26.20;17.42;;;;;;;;;;5050042;28;20044;-73
2023/10/18 06:35:15;;;;;;;20.73;15.75;;;;;;;;;;5048641;28;20050;-73
2023/10/18 06:37:41;;;;;;;25.60;15.55;;;;;;;;;;5051219;28;20090;-73
2023/10/18 06:40:21;;;;;;;22.90;15.93;;;;;;;;;;5039332;28;20120;-73
2023/10/18 06:42:47;;;;;;;22.02;15.68;;;;;;;;;;5035044;28;20061;-73
2023/10/18 06:45:18;;;;;;;20.63;15.57;;;;;;;;;;5049195;28;20112;-73
2023/10/18 06:47:44;;;;;;;20.33;14.65;;;;;;;;;;5054949;28;20033;-73
2023/10/18 06:50:19;;;;;;;22.25;15.60;;;;;;;;;;5048591;28;20041;-73
2023/10/18 06:52:52;;;;;;;23.45;14.88;;;;;;;;;;5033932;28;20128;-72
2023/10/18 06:55:19;;;;;;;28.08;15.65;;;;;;;;;;5037226;28;20049;-73
2023/10/18 06:57:49;;;;;;;25.13;15.10;;;;;;;;;;5044244;28;20029;-71
2023/10/18 07:00:16;;;;;;;20.42;14.60;;;;;;;;;;5040139;28;20461;-71
2023/10/18 07:02:44;;;;;;;23.02;15.85;;;;;;;;;;5042019;28;20094;-71
2023/10/18 07:05:10;;;;;;;21.48;14.45;;;;;;;;;;5040183;28;20032;-71
2023/10/18 07:07:39;;;;;;;19.48;14.63;;;;;;;;;;5033757;28;20060;-72
2023/10/18 07:10:09;;;;;;;24.13;15.88;;;;;;;;;;5038581;28;20128;-72
2023/10/18 07:12:44;;;;;;;21.75;14.38;;;;;;;;;;5044193;28;20497;-72
2023/10/18 07:15:16;;;;;;;21.02;14.32;;;;;;;;;;5036468;28;20043;-72
2023/10/18 07:17:42;;;;;;;19.02;13.73;;;;;;;;;;5043182;28;20074;-72
2023/10/18 07:20:15;;;;;;;22.75;15.10;;;;;;;;;;5050417;28;20114;-72
2023/10/18 07:22:45;;;;;;;19.55;14.02;;;;;;;;;;5045995;28;20386;-72
2023/10/18 07:25:21;;;;;;;26.85;15.63;;;;;;;;;;5032569;28;20064;-72
2023/10/18 07:27:47;;;;;;;20.73;14.20;;;;;;;;;;5035634;28;20566;-71
2023/10/18 07:30:14;;;;;;;21.02;14.45;;;;;;;;;;5049140;28;20083;-71
2023/10/18 07:32:41;;;;;;;20.02;13.30;;;;;;;;;;5047782;28;20051;-71
2023/10/18 07:35:11;;;;;;;18.38;13.55;;;;;;;;;;5052048;28;20052;-72
2023/10/18 07:37:43;;;;;;;18.77;13.93;;;;;;;;;;5039835;28;20200;-72
2023/10/18 07:40:21;;;;;;;20.52;12.98;;;;;;;;;;5035817;28;20037;-72
2023/10/18 07:42:51;;;;;;;17.25;12.95;;;;;;;;;;5038892;28;20062;-72
2023/10/18 07:45:17;;;;;;;24.83;14.23;;;;;;;;;;5029210;28;20172;-72
2023/10/18 07:47:43;;;;;;;17.30;12.85;;;;;;;;;;5042724;28;20048;-72
2023/10/18 07:52:55;;;;;;;19.95;12.82;;;;;;;;;;5044057;28;20055;-74
2023/10/18 07:55:24;;;;;;;15.82;12.18;;;;;;;;;;5023485;28;20030;-78
2023/10/18 07:57:54;;;;;;;17.63;13.00;;;;;;;;;;5036678;28;20111;-78
2023/10/18 08:00:25;;;;;;;17.73;12.73;;;;;;;;;;5037898;28;20455;-77
2023/10/18 08:02:52;;;;;;;22.10;13.35;;;;;;;;;;5045121;28;20371;-74
2023/10/18 08:05:21;;;;;;;23.38;14.95;;;;;;;;;;5041590;28;20025;-74
2023/10/18 08:07:55;;;;;;;21.77;13.70;;;;;;;;;;5047599;28;20403;-76
2023/10/18 08:10:21;;;;;;;17.90;11.90;;;;;;;;;;5031034;28;20041;-74
2023/10/18 08:15:55;;;;;;;15.95;11.43;;;;;;;;;;5039781;28;20103;-77
2023/10/18 08:18:56;;;;;;;20.98;12.75;;;;;;;;;;5033495;28;20032;-78
2023/10/18 08:24:06;;;;;;;14.93;11.63;;;;;;;;;;5046961;28;20048;-76
2023/10/18 08:26:38;;;;;;;16.40;11.68;;;;;;;;;;5037575;28;20070;-78
2023/10/18 08:29:04;;;;;;;17.42;11.95;;;;;;;;;;5046735;28;20044;-77
2023/10/18 08:31:33;;;;;;;12.93;10.80;;;;;;;;;;5045614;28;20036;-76
2023/10/18 08:34:05;;;;;;;24.88;15.95;;;;;;;;;;5043919;28;20534;-75
2023/10/18 08:36:32;;;;;;;21.13;13.80;;;;;;;;;;5032315;28;20025;-74
2023/10/18 08:38:58;;;;;;;21.10;13.60;;;;;;;;;;5031919;28;20125;-77
2023/10/18 08:41:26;;;;;;;16.13;11.82;;;;;;;;;;5050844;28;20086;-80
2023/10/18 08:43:59;;;;;;;16.48;10.52;;;;;;;;;;5048980;28;20021;-78
2023/10/18 08:46:26;;;;;;;16.50;10.88;;;;;;;;;;5042734;28;20032;-77
2023/10/18 08:48:56;;;;;;;17.40;11.48;;;;;;;;;;5050409;28;20549;-76
2023/10/18 08:51:26;;;;;;;21.63;11.20;;;;;;;;;;5045236;28;20104;-76
2023/10/18 08:53:55;;;;;;;15.77;10.57;;;;;;;;;;5046955;28;20045;-76
2023/10/18 08:56:29;;;;;;;11.98;10.00;;;;;;;;;;5031106;28;20096;-76
2023/10/18 08:58:58;;;;;;;20.55;13.07;;;;;;;;;;5040526;28;20037;-76
2023/10/18 09:01:25;;;;;;;18.42;10.88;;;;;;;;;;5042876;28;20040;-76
2023/10/18 09:03:51;;;;;;;27.60;19.60;;;;;;;;;;5039630;28;20109;-76
2023/10/18 09:06:30;;;;;;;13.80;10.07;;;;;;;;;;5043383;28;20056;-77
2023/10/18 09:09:05;;;;;;;15.18;10.75;;;;;;;;;;5039584;28;20033;-77
2023/10/18 09:11:32;;;;;;;16.83;11.23;;;;;;;;;;5050229;28;20071;-77
2023/10/18 09:14:08;;;;;;;15.35;10.90;;;;;;;;;;5027080;28;20060;-77
2023/10/18 09:16:38;;;;;;;15.65;9.50;;;;;;;;;;5046085;28;20540;-77
2023/10/18 09:19:05;;;;;;;13.32;10.50;;;;;;;;;;5045456;28;20021;-76
2023/10/18 09:21:36;;;;;;;12.18;9.25;;;;;;;;;;5044285;28;20501;-77
2023/10/18 09:24:03;;;;;;;15.50;9.55;;;;;;;;;;5043756;28;20040;-76
2023/10/18 09:26:41;;;;;;;13.95;9.32;;;;;;;;;;5060592;28;20047;-76
2023/10/18 09:29:10;;;;;;;15.88;11.38;;;;;;;;;;5044788;28;20030;-76
2023/10/18 09:32:03;;;;;;;17.17;10.00;;;;;;;;;;5047482;28;20466;-77
2023/10/18 09:34:38;;;;;;;;;;;;;;;;;;5051157;28;20034;-77
2023/10/18 09:37:11;;;;;;;14.55;10.18;;;;;;;;;;5050926;28;19912;-75
2023/10/18 09:39:37;;;;;;;45.90;28.48;;;;;;;;;;5051036;28;20052;-73
2023/10/18 09:42:05;;;;;;;19.73;12.70;;;;;;;;;;5053858;28;20040;-74
2023/10/18 09:44:31;;;;;;;14.60;10.05;;;;;;;;;;5056492;28;20060;-75
2023/10/18 09:46:59;;;;;;;14.93;9.32;;;;;;;;;;5053773;28;20025;-74
2023/10/18 09:49:28;;;;;;;14.13;8.70;;;;;;;;;;5048539;28;20018;-75
2023/10/18 09:51:54;;;;;;;15.18;9.77;;;;;;;;;;5060417;28;20491;-74
2023/10/18 09:54:26;;;;;;;15.98;9.30;;;;;;;;;;5053250;28;20048;-75
2023/10/18 09:56:56;;;;;;;12.82;8.98;;;;;;;;;;5052794;28;20135;-74
2023/10/18 09:59:27;;;;;;;12.00;8.88;;;;;;;;;;5058221;28;20042;-75
2023/10/18 10:02:00;;;;;;;14.23;9.25;;;;;;;;;;5046776;28;20032;-74
2023/10/18 10:04:33;;;;;;;16.58;9.27;;;;;;;;;;5043115;28;20517;-74
2023/10/18 10:09:47;;;;;;;15.10;9.77;;;;;;;;;;5044440;28;20107;-73
2023/10/18 10:12:15;;;;;;;9.10;7.78;;;;;;;;;;5058778;28;20028;-74
2023/10/18 10:14:41;;;;;;;12.50;8.75;;;;;;;;;;5044150;28;20036;-75
2023/10/18 10:17:18;;;;;;;13.18;7.72;;;;;;;;;;5038382;28;20452;-75
2023/10/18 10:19:48;;;;;;;11.15;7.70;;;;;;;;;;5049922;28;20422;-76
2023/10/18 10:22:17;;;;;;;12.30;8.38;;;;;;;;;;5044451;28;20063;-76
2023/10/18 10:24:43;;;;;;;11.15;7.00;;;;;;;;;;5052264;28;20068;-75
2023/10/18 10:27:27;;;;;;;13.02;8.57;;;;;;;;;;5058447;28;20040;-76
2023/10/18 10:29:56;;;;;;;11.30;7.55;;;;;;;;;;5043864;28;20029;-77
2023/10/18 10:32:23;;;;;;;14.25;8.00;;;;;;;;;;5041409;28;20139;-76
2023/10/18 10:34:53;;;;;;;11.30;7.47;;;;;;;;;;5048369;28;20429;-76
2023/10/18 10:37:19;;;;;;;9.85;6.95;;;;;;;;;;5059685;28;20032;-76
2023/10/18 10:39:49;;;;;;;10.00;7.18;;;;;;;;;;5050636;28;20032;-75
2023/10/18 10:42:43;;;;;;;29.38;17.55;;;;;;;;;;5059781;28;20025;-77
2023/10/18 10:45:11;;;;;;;17.95;12.48;;;;;;;;;;5049495;28;20037;-79
2023/10/18 10:47:43;;;;;;;10.00;7.40;;;;;;;;;;5044348;28;20075;-78
2023/10/18 10:50:09;;;;;;;;;;;;;;;;;;5059231;28;20028;-77
2023/10/18 10:52:40;;;;;;;11.68;7.00;;;;;;;;;;5053803;28;19931;-77
2023/10/18 10:55:21;;;;;;;10.00;7.53;;;;;;;;;;5045877;28;20068;-77
2023/10/18 10:57:48;;;;;;;12.18;7.65;;;;;;;;;;5051260;28;20494;-78
2023/10/18 11:03:06;;;;;;;9.85;7.70;;;;;;;;;;5041555;28;20715;-76
2023/10/18 11:05:36;;;;;;;13.38;7.18;;;;;;;;;;5064502;28;20111;-76
2023/10/18 11:08:02;;;;;;;12.65;7.30;;;;;;;;;;5056430;28;20032;-77
2023/10/18 11:10:28;;;;;;;9.38;6.63;;;;;;;;;;5056199;28;20045;-76
2023/10/18 11:12:56;;;;;;;10.23;6.68;;;;;;;;;;5048799;28;20041;-76
2023/10/18 11:15:27;;;;;;;10.32;6.60;;;;;;;;;;5047279;28;20037;-76
2023/10/18 11:18:09;;;;;;;10.95;6.78;;;;;;;;;;5049637;28;20040;-76
2023/10/18 11:20:48;;;;;;;8.23;6.75;;;;;;;;;;5033776;28;20028;-76
2023/10/18 11:23:14;;;;;;;11.63;7.05;;;;;;;;;;5039511;28;20021;-76
2023/10/18 11:25:45;;;;;;;8.18;6.40;;;;;;;;;;5032725;28;20064;-76
2023/10/18 11:28:21;;;;;;;8.18;6.65;;;;;;;;;;5053162;28;20040;-76
2023/10/18 11:30:49;;;;;;;11.13;6.82;;;;;;;;;;5051463;28;20029;-76
2023/10/18 11:33:17;;;;;;;10.95;7.18;;;;;;;;;;5032662;28;20041;-76
2023/10/18 11:35:48;;;;;;;8.25;6.82;;;;;;;;;;5063520;28;20050;-76
2023/10/18 11:38:19;;;;;;;11.43;6.30;;;;;;;;;;5058168;28;20124;-77
2023/10/18 11:40:52;;;;;;;11.80;6.88;;;;;;;;;;5040959;28;20471;-76
2023/10/18 11:43:20;;;;;;;;;;;;;;;;;;5041732;28;20122;-76
2023/10/18 11:45:48;;;;;;;8.23;6.38;;;;;;;;;;5055927;28;20413;-76
2023/10/18 11:48:15;;;;;;;9.10;5.93;;;;;;;;;;5049983;28;20033;-76
2023/10/18 11:50:47;;;;;;;8.57;7.00;;;;;;;;;;5067255;28;20108;-76
2023/10/18 11:53:14;;;;;;;9.18;6.00;;;;;;;;;;5059352;28;20045;-76
2023/10/18 11:55:55;;;;;;;10.55;6.57;;;;;;;;;;5054950;28;20017;-76
2023/10/18 11:58:31;;;;;;;8.52;6.10;;;;;;;;;;5050352;28;20030;-77
2023/10/18 12:01:00;;;;;;;12.48;6.28;;;;;;;;;;5036798;28;20040;-74
2023/10/18 12:03:33;;;;;;;10.30;6.93;;;;;;;;;;5041312;28;20158;-75
2023/10/18 12:06:00;;;;;;;10.13;6.57;;;;;;;;;;5043550;28;20033;-74
2023/10/18 12:08:30;;;;;;;45.45;29.90;;;;;;;;;;5045733;28;20033;-77
2023/10/18 12:10:57;;;;;;;13.80;6.05;;;;;;;;;;5043505;28;20104;-75
2023/10/18 12:13:24;;;;;;;10.35;6.10;;;;;;;;;;5038407;28;20075;-75
2023/10/18 12:15:52;;;;;;;9.23;5.60;;;;;;;;;;5047544;28;20067;-76
2023/10/18 12:18:21;;;;;;;8.45;6.47;;;;;;;;;;5042732;28;20052;-75
2023/10/18 12:20:47;;;;;;;9.73;5.63;;;;;;;;;;5047485;28;20522;-75
2023/10/18 12:23:13;;;;;;;8.25;5.88;;;;;;;;;;5036690;28;20478;-75
2023/10/18 12:25:42;;;;;;;12.68;6.25;;;;;;;;;;5044902;28;20421;-76
2023/10/18 12:28:19;;;;;;;9.50;5.65;;;;;;;;;;5040599;28;20217;-76
2023/10/18 12:30:52;;;;;;;10.80;5.93;;;;;;;;;;5049174;28;20431;-74
2023/10/18 12:33:27;;;;;;;7.85;5.82;;;;;;;;;;5055402;28;20044;-78
2023/10/18 12:35:56;;;;;;;8.25;5.93;;;;;;;;;;5040211;28;20486;-78
2023/10/18 12:38:31;;;;;;;12.32;7.90;;;;;;;;;;5020993;28;20127;-75
2023/10/18 12:43:47;;;;;;;10.55;5.50;;;;;;;;;;5051938;28;20128;-75
2023/10/18 12:46:16;;;;;;;15.48;7.07;;;;;;;;;;5052038;28;20068;-75
2023/10/18 12:48:49;;;;;;;7.68;4.97;;;;;;;;;;5044469;28;20037;-73
2023/10/18 12:51:17;;;;;;;10.70;5.75;;;;;;;;;;5027964;28;20081;-75
2023/10/18 12:53:56;;;;;;;6.13;4.60;;;;;;;;;;5036915;28;20136;-75
2023/10/18 12:56:32;;;;;;;9.63;5.00;;;;;;;;;;5050343;28;20056;-78
2023/10/18 12:59:22;;;;;;;8.32;5.20;;;;;;;;;;5042326;28;20179;-78
2023/10/18 13:01:49;;;;;;;10.43;4.47;;;;;;;;;;5042724;28;20045;-77
2023/10/18 13:04:22;;;;;;;9.38;4.95;;;;;;;;;;5052298;28;20032;-88
2023/10/18 13:06:48;;;;;;;7.18;4.93;;;;;;;;;;5054774;28;20581;-81
2023/10/18 13:09:15;;;;;;;6.88;4.63;;;;;;;;;;5050888;28;20071;-80
2023/10/18 13:14:09;;;;;;;8.65;5.05;;;;;;;;;;5062353;28;20044;-76
2023/10/18 13:16:35;;;;;;;9.15;4.90;;;;;;;;;;5056537;28;20040;-82
2023/10/18 13:19:03;;;;;;;8.07;5.25;;;;;;;;;;5048477;28;20086;-76
2023/10/18 13:21:31;;;;;;;8.57;5.30;;;;;;;;;;5035247;28;20033;-76
2023/10/18 13:23:59;;;;;;;8.48;4.40;;;;;;;;;;5059855;28;20489;-76
2023/10/18 13:26:31;;;;;;;8.55;5.82;;;;;;;;;;5052170;28;20106;-76
2023/10/18 13:29:00;;;;;;;6.90;5.38;;;;;;;;;;5066250;28;20029;-76
2023/10/18 13:31:32;;;;;;;8.15;4.90;;;;;;;;;;5041942;28;20025;-76
2023/10/18 13:34:07;;;;;;;10.98;4.90;;;;;;;;;;5056837;28;20067;-76
2023/10/18 13:36:33;;;;;;;9.80;4.40;;;;;;;;;;5059545;28;20020;-76
2023/10/18 13:39:00;;;;;;;8.13;5.03;;;;;;;;;;5073972;28;20036;-76
2023/10/18 13:41:26;;;;;;;6.95;5.47;;;;;;;;;;5069343;28;20497;-76
2023/10/18 13:43:54;;;;;;;9.43;5.45;;;;;;;;;;5066033;28;20049;-76
2023/10/18 13:46:22;;;;;;;9.05;5.65;;;;;;;;;;5028704;28;20532;-76
2023/10/18 13:48:52;;;;;;;6.70;5.10;;;;;;;;;;5071241;28;20035;-76
2023/10/18 13:51:21;;;;;;;9.30;4.93;;;;;;;;;;5061524;28;20029;-76
2023/10/18 13:53:47;;;;;;;11.77;5.43;;;;;;;;;;5070575;28;20131;-77
2023/10/18 13:56:15;;;;;;;11.40;5.15;;;;;;;;;;5068820;28;20036;-77
2023/10/18 13:58:41;;;;;;;12.35;4.80;;;;;;;;;;5056701;28;20059;-77
2023/10/18 14:01:17;;;;;;;7.32;5.22;;;;;;;;;;5061947;28;20033;-76
2023/10/18 14:03:48;;;;;;;7.13;5.05;;;;;;;;;;5047049;28;20025;-76
2023/10/18 14:06:14;;;;;;;14.98;5.95;;;;;;;;;;5048213;28;20040;-76
2023/10/18 14:08:43;;;;;;;9.60;5.32;;;;;;;;;;5058049;28;20029;-77
2023/10/18 14:11:09;;;;;;;7.82;5.38;;;;;;;;;;5069712;28;20035;-77
2023/10/18 14:13:36;;;;;;;8.13;4.80;;;;;;;;;;5071016;28;20024;-76
2023/10/18 14:16:04;;;;;;;8.65;5.13;;;;;;;;;;5056823;28;20032;-76
2023/10/18 14:18:32;;;;;;;8.93;5.35;;;;;;;;;;5059349;28;20092;-77
2023/10/18 14:21:04;;;;;;;11.07;5.72;;;;;;;;;;5051862;28;20085;-76
2023/10/18 14:23:31;;;;;;;8.95;5.55;;;;;;;;;;5070708;28;20032;-76
2023/10/18 14:26:00;;;;;;;9.77;5.93;;;;;;;;;;5053666;28;20069;-76
2023/10/18 14:28:27;;;;;;;9.43;6.40;;;;;;;;;;5055554;28;20033;-76
2023/10/18 14:30:57;;;;;;;9.57;5.70;;;;;;;;;;5048981;28;20059;-76
2023/10/18 14:33:26;;;;;;;9.70;5.18;;;;;;;;;;5066651;28;20036;-76
2023/10/18 14:35:52;;;;;;;11.40;6.43;;;;;;;;;;5033319;28;20041;-77
2023/10/18 14:38:18;;;;;;;8.98;5.88;;;;;;;;;;5053339;28;20098;-76
2023/10/18 14:40:45;;;;;;;15.32;5.88;;;;;;;;;;5056520;28;20049;-76
2023/10/18 14:43:11;;;;;;;10.77;5.53;;;;;;;;;;5050372;28;20030;-74
2023/10/18 14:45:40;;;;;;;23.88;12.15;;;;;;;;;;5044221;28;20040;-78
2023/10/18 14:48:06;;;;;;;15.43;8.57;;;;;;;;;;5024783;28;20486;-78
2023/10/18 14:50:35;;;;;;;15.07;7.85;;;;;;;;;;5051455;28;20078;-77
2023/10/18 14:53:01;;;;;;;15.60;7.18;;;;;;;;;;5051846;28;20131;-77
2023/10/18 14:55:30;;;;;;;13.57;6.82;;;;;;;;;;5035140;28;20067;-77
2023/10/18 14:57:56;;;;;;;13.85;7.13;;;;;;;;;;5052792;28;20025;-77
2023/10/18 15:00:22;;;;;;;10.15;6.00;;;;;;;;;;5033964;28;20087;-77
2023/10/18 15:02:50;;;;;;;11.73;5.93;;;;;;;;;;5045826;28;20106;-82
2023/10/18 15:05:17;;;;;;;13.63;6.35;;;;;;;;;;5050805;28;20029;-82
2023/10/18 15:07:44;;;;;;;10.13;6.20;;;;;;;;;;5041679;28;20044;-77
2023/10/18 15:10:10;;;;;;;8.63;6.18;;;;;;;;;;5041881;28;20105;-77
2023/10/18 15:12:36;;;;;;;15.00;7.53;;;;;;;;;;5037779;28;20036;-76
2023/10/18 15:15:09;;;;;;;11.32;6.97;;;;;;;;;;5038840;28;20040;-76
2023/10/18 15:17:37;;;;;;;10.95;6.60;;;;;;;;;;5037580;28;20033;-76
2023/10/18 15:20:04;;;;;;;10.02;6.40;;;;;;;;;;5045563;28;20056;-76